createdAt,value
2022-12-14T00:01:17.702Z,30.20
2022-12-14T00:03:45.111Z,29.20
2022-12-14T00:06:20.786Z,29.13
2022-12-14T00:08:48.205Z,28.45
2022-12-14T00:11:15.210Z,26.27
2022-12-14T00:13:42.328Z,28.10
2022-12-14T00:16:11.938Z,27.90
2022-12-14T00:18:38.865Z,26.80
2022-12-14T00:21:13.084Z,26.98
2022-12-14T00:23:42.590Z,28.83
2022-12-14T00:26:13.902Z,26.77
2022-12-14T00:28:40.677Z,28.88
2022-12-14T00:31:07.439Z,28.70
2022-12-14T00:33:35.012Z,30.13
2022-12-14T00:36:02.245Z,30.63
2022-12-14T00:38:29.494Z,29.45
2022-12-14T00:40:56.410Z,30.05
2022-12-14T00:43:23.478Z,30.55
2022-12-14T00:45:50.201Z,30.17
2022-12-14T00:48:18.212Z,29.33
2022-12-14T00:50:48.876Z,30.10
2022-12-14T00:53:15.768Z,30.20
2022-12-14T00:55:44.108Z,29.70
2022-12-14T00:58:17.441Z,28.67
2022-12-14T01:00:46.442Z,28.83
2022-12-14T01:03:13.012Z,30.58
2022-12-14T01:05:39.683Z,28.77
2022-12-14T01:08:06.798Z,28.65
2022-12-14T01:10:33.330Z,28.48
2022-12-14T01:12:59.773Z,30.25
2022-12-14T01:15:26.233Z,28.30
2022-12-14T01:17:53.259Z,29.15
2022-12-14T01:20:19.666Z,29.52
2022-12-14T01:22:46.246Z,29.95
2022-12-14T01:25:12.689Z,27.67
2022-12-14T01:27:39.110Z,26.48
2022-12-14T01:30:05.911Z,28.48
2022-12-14T01:32:34.431Z,28.35
2022-12-14T01:35:00.826Z,29.15
2022-12-14T01:37:27.209Z,29.17
2022-12-14T01:39:53.671Z,25.88
2022-12-14T01:42:20.041Z,27.70
2022-12-14T01:44:50.293Z,25.55
2022-12-14T01:47:30.796Z,25.42
2022-12-14T01:50:05.566Z,26.80
2022-12-14T01:52:38.396Z,29.05
2022-12-14T01:55:09.827Z,28.13
2022-12-14T01:58:08.320Z,26.63
2022-12-14T02:00:34.733Z,26.35
2022-12-14T02:03:09.729Z,25.52
2022-12-14T02:05:38.026Z,24.98
2022-12-14T02:08:05.349Z,23.98
2022-12-14T02:10:32.490Z,23.92
2022-12-14T02:13:06.950Z,23.92
2022-12-14T02:15:34.687Z,28.88
2022-12-14T02:18:02.209Z,25.92
2022-12-14T02:20:34.261Z,22.95
2022-12-14T02:23:33.143Z,23.08
2022-12-14T02:26:14.675Z,22.27
2022-12-14T02:28:46.352Z,21.80
2022-12-14T02:31:27.090Z,21.88
2022-12-14T02:34:09.309Z,21.65
2022-12-14T02:36:42.205Z,22.48
2022-12-14T02:39:15.042Z,21.35
2022-12-14T02:41:54.275Z,22.67
2022-12-14T02:44:38.368Z,20.80
2022-12-14T02:47:25.311Z,19.52
2022-12-14T02:50:02.646Z,20.00
2022-12-14T02:52:41.263Z,19.58
2022-12-14T02:55:32.008Z,18.55
2022-12-14T02:58:14.049Z,18.95
2022-12-14T03:00:40.995Z,20.20
2022-12-14T03:03:08.027Z,20.48
2022-12-14T03:05:34.907Z,21.00
2022-12-14T03:08:04.531Z,20.40
2022-12-14T03:10:30.854Z,18.77
2022-12-14T03:13:15.740Z,16.95
2022-12-14T03:15:45.408Z,17.20
2022-12-14T03:18:14.312Z,16.75
2022-12-14T03:20:42.539Z,20.88
2022-12-14T03:23:12.582Z,19.52
2022-12-14T03:25:46.333Z,17.48
2022-12-14T03:28:22.180Z,16.48
2022-12-14T03:31:01.529Z,18.02
2022-12-14T03:33:30.471Z,17.17
2022-12-14T03:36:19.109Z,16.17
2022-12-14T03:38:50.058Z,15.45
2022-12-14T03:41:29.138Z,14.52
2022-12-14T03:44:19.890Z,14.43
2022-12-14T03:46:56.471Z,14.50
2022-12-14T03:49:59.404Z,14.70
2022-12-14T03:55:02.679Z,13.05
2022-12-14T03:57:47.410Z,14.77
2022-12-14T04:00:17.575Z,15.45
2022-12-14T04:02:46.556Z,15.45
2022-12-14T04:05:23.482Z,16.63
2022-12-14T04:08:04.661Z,16.25
2022-12-14T04:11:01.325Z,16.52
2022-12-14T04:13:50.440Z,15.48
2022-12-14T04:16:40.249Z,14.85
2022-12-14T04:19:12.322Z,14.60
2022-12-14T04:21:50.901Z,16.08
2022-12-14T04:24:57.770Z,17.38
2022-12-14T04:27:41.509Z,16.70
2022-12-14T04:30:09.944Z,14.75
2022-12-14T04:33:23.893Z,16.20
2022-12-14T04:35:50.512Z,15.95
2022-12-14T04:38:20.441Z,15.98
2022-12-14T04:40:52.512Z,15.57
2022-12-14T04:43:22.060Z,16.63
2022-12-14T04:46:08.496Z,16.25
2022-12-14T04:49:12.553Z,15.57
2022-12-14T04:51:46.881Z,15.18
2022-12-14T04:54:39.595Z,15.40
2022-12-14T04:59:35.186Z,13.13
2022-12-14T05:02:10.561Z,14.02
2022-12-14T05:04:56.488Z,15.13
2022-12-14T05:07:41.232Z,15.02
2022-12-14T05:10:14.492Z,13.73
2022-12-14T05:12:43.527Z,14.30
2022-12-14T05:15:12.487Z,13.85
2022-12-14T05:17:40.049Z,13.68
2022-12-14T05:20:09.022Z,14.90
2022-12-14T05:22:38.752Z,14.20
2022-12-14T05:25:05.752Z,14.77
2022-12-14T05:27:32.164Z,15.48
2022-12-14T05:29:58.552Z,19.10
2022-12-14T05:32:25.091Z,16.50
2022-12-14T05:34:51.521Z,17.63
2022-12-14T05:37:18.602Z,17.30
2022-12-14T05:39:45.334Z,16.58
2022-12-14T05:42:11.807Z,16.65
2022-12-14T05:44:38.212Z,16.48
2022-12-14T05:47:04.729Z,15.20
2022-12-14T05:49:31.220Z,15.45
2022-12-14T05:51:57.794Z,15.55
2022-12-14T05:54:24.254Z,15.60
2022-12-14T05:56:50.760Z,15.30
2022-12-14T05:59:17.359Z,16.98
2022-12-14T06:01:45.418Z,17.70
2022-12-14T06:04:16.629Z,16.60
2022-12-14T06:06:43.461Z,17.27
2022-12-14T06:09:11.275Z,16.23
2022-12-14T06:11:40.384Z,16.33
2022-12-14T06:14:08.328Z,16.13
2022-12-14T06:16:35.393Z,16.40
2022-12-14T06:19:04.045Z,16.10
2022-12-14T06:21:32.638Z,15.95
2022-12-14T06:23:59.908Z,15.90
2022-12-14T06:26:27.614Z,16.35
2022-12-14T06:28:55.337Z,16.10
2022-12-14T06:31:24.301Z,15.52
2022-12-14T06:33:51.508Z,15.32
2022-12-14T06:36:20.036Z,15.05
2022-12-14T06:38:46.507Z,15.65
2022-12-14T06:41:13.031Z,15.63
2022-12-14T06:43:39.455Z,15.20
2022-12-14T06:46:15.836Z,16.33
2022-12-14T06:48:42.770Z,15.65
2022-12-14T06:51:09.439Z,17.23
2022-12-14T06:53:36.257Z,15.93
2022-12-14T06:56:10.469Z,16.92
2022-12-14T06:58:36.919Z,17.95
2022-12-14T07:01:05.117Z,16.02
2022-12-14T07:03:32.184Z,19.80
2022-12-14T07:05:59.664Z,17.52
2022-12-14T07:08:27.233Z,23.77
2022-12-14T07:10:58.928Z,30.75
2022-12-14T07:13:29.164Z,19.08
2022-12-14T07:15:57.015Z,17.55
2022-12-14T07:18:23.651Z,16.10
2022-12-14T07:20:57.192Z,16.95
2022-12-14T07:23:27.912Z,17.40
2022-12-14T07:26:01.022Z,17.70
2022-12-14T07:28:27.897Z,17.65
2022-12-14T07:30:58.630Z,18.55
2022-12-14T07:33:27.224Z,18.02
2022-12-14T07:36:11.700Z,18.80
2022-12-14T07:38:39.410Z,18.98
2022-12-14T07:41:08.274Z,18.67
2022-12-14T07:43:35.083Z,20.00
2022-12-14T07:46:06.829Z,19.33
2022-12-14T07:48:33.910Z,18.98
2022-12-14T07:51:05.512Z,18.50
2022-12-14T07:53:32.494Z,18.17
2022-12-14T07:56:04.692Z,18.98
2022-12-14T07:58:33.024Z,18.73
2022-12-14T08:01:12.950Z,18.58
2022-12-14T08:03:46.422Z,18.25
2022-12-14T08:06:14.116Z,18.20
2022-12-14T08:08:40.668Z,17.88
2022-12-14T08:11:07.483Z,18.52
2022-12-14T08:13:34.679Z,18.63
2022-12-14T08:16:09.704Z,17.88
2022-12-14T08:18:36.382Z,18.60
2022-12-14T08:21:04.871Z,20.25
2022-12-14T08:23:32.215Z,20.92
2022-12-14T08:26:00.414Z,20.45
2022-12-14T08:28:27.950Z,19.42
2022-12-14T08:30:54.711Z,20.17
2022-12-14T08:33:21.581Z,20.90
2022-12-14T08:35:48.364Z,23.98
2022-12-14T08:38:15.499Z,28.25
2022-12-14T08:40:41.954Z,29.83
2022-12-14T08:43:09.367Z,28.98
2022-12-14T08:45:36.203Z,28.40
2022-12-14T08:48:02.706Z,26.85
2022-12-14T08:50:29.284Z,25.00
2022-12-14T08:52:55.881Z,25.42
2022-12-14T08:55:28.269Z,25.23
2022-12-14T08:57:56.903Z,24.85
2022-12-14T09:00:23.380Z,23.35
2022-12-14T09:02:51.121Z,22.98
2022-12-14T09:05:17.977Z,22.13
2022-12-14T09:07:44.463Z,20.20
2022-12-14T09:10:11.216Z,21.50
2022-12-14T09:12:37.655Z,21.33
2022-12-14T09:15:04.246Z,19.70
2022-12-14T09:17:30.659Z,20.20
2022-12-14T09:19:58.015Z,20.58
2022-12-14T09:22:24.573Z,20.70
2022-12-14T09:24:52.033Z,20.38
2022-12-14T09:27:18.566Z,19.88
2022-12-14T09:29:44.934Z,19.88
2022-12-14T09:32:11.320Z,20.77
2022-12-14T09:34:37.724Z,21.13
2022-12-14T09:37:04.643Z,20.95
2022-12-14T09:39:31.588Z,19.67
2022-12-14T09:42:40.930Z,18.55
2022-12-14T09:45:17.211Z,20.10
2022-12-14T09:47:54.996Z,19.10
2022-12-14T09:50:22.475Z,19.92
2022-12-14T09:52:54.838Z,20.73
2022-12-14T09:58:01.466Z,20.30
2022-12-14T10:00:34.307Z,17.98
2022-12-14T10:03:28.044Z,15.50
2022-12-14T10:06:16.821Z,14.43
2022-12-14T10:09:18.628Z,13.93
2022-12-14T10:11:50.014Z,16.88
2022-12-14T10:14:51.809Z,17.63
2022-12-14T10:17:24.108Z,15.40
2022-12-14T10:19:56.198Z,16.05
2022-12-14T10:22:25.930Z,18.13
2022-12-14T10:25:05.512Z,18.30
2022-12-14T10:27:48.031Z,17.05
2022-12-14T10:30:23.531Z,17.27
2022-12-14T10:32:54.975Z,18.50
2022-12-14T10:35:45.532Z,16.53
2022-12-14T10:38:23.805Z,16.67
2022-12-14T10:40:53.638Z,15.60
2022-12-14T10:43:43.540Z,15.20
2022-12-14T10:46:33.486Z,13.40
2022-12-14T10:49:09.039Z,10.82
2022-12-14T10:51:39.392Z,11.07
2022-12-14T10:54:30.487Z,11.23
2022-12-14T10:56:57.231Z,11.50
2022-12-14T10:59:25.344Z,9.73
2022-12-14T11:02:01.355Z,9.48
2022-12-14T11:04:39.695Z,9.43
2022-12-14T11:07:12.154Z,9.60
2022-12-14T11:12:18.358Z,8.90
2022-12-14T11:14:55.879Z,8.98
2022-12-14T11:17:39.660Z,8.40
2022-12-14T11:20:13.245Z,8.55
2022-12-14T11:22:53.041Z,8.15
2022-12-14T11:25:45.083Z,8.25
2022-12-14T11:28:25.826Z,7.37
2022-12-14T11:31:00.885Z,6.70
2022-12-14T11:33:41.499Z,6.93
2022-12-14T11:36:08.930Z,6.93
2022-12-14T11:38:35.414Z,6.57
2022-12-14T11:41:10.733Z,7.13
2022-12-14T11:43:38.913Z,6.97
2022-12-14T11:46:05.788Z,6.82
2022-12-14T11:48:34.904Z,7.35
2022-12-14T11:51:27.877Z,6.68
2022-12-14T11:54:02.573Z,6.47
2022-12-14T11:56:29.094Z,7.38
2022-12-14T11:58:55.683Z,6.68
2022-12-14T12:01:26.588Z,7.00
2022-12-14T12:03:55.587Z,7.20
2022-12-14T12:06:24.808Z,7.50
2022-12-14T12:08:59.736Z,7.75
2022-12-14T12:11:34.230Z,8.00
2022-12-14T12:14:04.056Z,7.35
2022-12-14T12:16:32.746Z,7.93
2022-12-14T12:19:11.250Z,8.10
2022-12-14T12:21:44.579Z,7.57
2022-12-14T12:24:20.470Z,7.78
2022-12-14T12:26:54.841Z,8.55
2022-12-14T12:29:40.544Z,7.07
2022-12-14T12:32:27.077Z,7.80
2022-12-14T12:35:01.380Z,7.95
2022-12-14T12:37:35.352Z,7.55
2022-12-14T12:40:13.536Z,7.20
2022-12-14T12:42:51.597Z,7.13
2022-12-14T12:45:25.837Z,6.72
2022-12-14T12:48:14.679Z,8.02
2022-12-14T12:50:49.836Z,7.57
2022-12-14T12:53:24.383Z,7.22
2022-12-14T12:55:53.860Z,6.90
2022-12-14T12:58:23.381Z,7.32
2022-12-14T13:00:55.365Z,7.13
2022-12-14T13:03:28.012Z,7.22
2022-12-14T13:05:56.758Z,7.55
2022-12-14T13:08:30.874Z,7.40
2022-12-14T13:13:50.548Z,7.18
2022-12-14T13:16:27.176Z,7.10
2022-12-14T13:19:13.206Z,6.88
2022-12-14T13:21:51.755Z,7.30
2022-12-14T13:24:20.300Z,6.82
2022-12-14T13:27:17.457Z,7.57
2022-12-14T13:29:50.588Z,6.65
2022-12-14T13:35:24.759Z,6.90
2022-12-14T13:38:06.221Z,7.30
2022-12-14T13:40:41.506Z,7.65
2022-12-14T13:43:17.404Z,7.07
2022-12-14T13:45:46.198Z,6.85
2022-12-14T13:48:27.828Z,7.53
2022-12-14T13:51:01.388Z,7.68
2022-12-14T13:53:36.251Z,8.00
2022-12-14T13:56:03.006Z,9.43
2022-12-14T13:58:47.173Z,8.50
2022-12-14T14:01:14.931Z,8.43
2022-12-14T14:03:47.534Z,8.38
2022-12-14T14:06:39.341Z,8.13
2022-12-14T14:09:29.161Z,7.93
2022-12-14T14:12:00.070Z,8.43
2022-12-14T14:14:48.637Z,8.27
2022-12-14T14:17:25.385Z,8.20
2022-12-14T14:19:56.523Z,8.13
2022-12-14T14:22:27.484Z,8.25
2022-12-14T14:25:10.175Z,7.93
2022-12-14T14:27:42.154Z,7.93
2022-12-14T14:30:37.351Z,8.93
2022-12-14T14:33:44.951Z,8.55
2022-12-14T14:36:26.334Z,9.00
2022-12-14T14:38:54.388Z,8.48
2022-12-14T14:41:23.605Z,8.80
2022-12-14T14:43:54.013Z,8.70
2022-12-14T14:46:32.795Z,8.80
2022-12-14T14:49:00.330Z,8.25
2022-12-14T14:51:32.993Z,7.78
2022-12-14T14:54:44.755Z,8.10
2022-12-14T14:57:55.529Z,8.43
2022-12-14T15:00:22.944Z,8.52
2022-12-14T15:02:52.017Z,8.40
2022-12-14T15:05:54.299Z,9.02
2022-12-14T15:08:33.909Z,9.10
2022-12-14T15:11:04.649Z,8.65
2022-12-14T15:13:43.008Z,8.77
2022-12-14T15:16:21.921Z,9.43
2022-12-14T15:18:49.245Z,9.40
2022-12-14T15:21:16.671Z,9.70
2022-12-14T15:23:52.169Z,10.15
2022-12-14T15:26:26.852Z,11.05
2022-12-14T15:28:55.892Z,11.43
2022-12-14T15:31:30.916Z,11.18
2022-12-14T15:33:58.191Z,12.82
2022-12-14T15:36:30.816Z,11.95
2022-12-14T15:38:58.307Z,11.73
2022-12-14T15:41:27.723Z,11.52
2022-12-14T15:43:59.799Z,11.13
2022-12-14T15:48:56.973Z,11.68
2022-12-14T15:51:27.769Z,11.35
2022-12-14T15:53:55.049Z,12.23
2022-12-14T15:56:30.569Z,11.18
2022-12-14T15:58:59.298Z,11.55
2022-12-14T16:01:29.571Z,11.32
2022-12-14T16:03:58.791Z,11.32
2022-12-14T16:06:27.306Z,11.85
2022-12-14T16:08:58.354Z,11.55
2022-12-14T16:11:35.105Z,10.40
2022-12-14T16:14:06.393Z,11.00
2022-12-14T16:16:32.864Z,10.98
2022-12-14T16:19:20.270Z,10.23
2022-12-14T16:22:05.143Z,11.68
2022-12-14T16:24:31.835Z,10.43
2022-12-14T16:26:59.944Z,10.75
2022-12-14T16:29:28.901Z,10.90
2022-12-14T16:32:15.292Z,10.73
2022-12-14T16:34:59.011Z,11.27
2022-12-14T16:37:33.937Z,11.98
2022-12-14T16:40:00.744Z,11.38
2022-12-14T16:42:27.238Z,11.23
2022-12-14T16:44:54.374Z,12.27
2022-12-14T16:47:20.713Z,12.23
2022-12-14T16:49:50.685Z,12.00
2022-12-14T16:52:19.854Z,11.35
2022-12-14T16:55:06.976Z,12.43
2022-12-14T16:57:33.820Z,12.25
2022-12-14T17:00:06.674Z,13.45
2022-12-14T17:02:38.422Z,13.05
2022-12-14T17:05:12.614Z,13.23
2022-12-14T17:07:39.415Z,13.95
2022-12-14T17:10:16.556Z,14.02
2022-12-14T17:12:44.009Z,14.48
2022-12-14T17:15:19.479Z,15.55
2022-12-14T17:17:49.456Z,14.10
2022-12-14T17:20:28.315Z,13.40
2022-12-14T17:22:58.432Z,14.00
2022-12-14T17:25:26.221Z,14.02
2022-12-14T17:27:52.723Z,14.63
2022-12-14T17:30:21.617Z,14.50
2022-12-14T17:32:48.842Z,13.88
2022-12-14T17:35:26.798Z,13.18
2022-12-14T17:37:53.286Z,13.82
2022-12-14T17:40:21.708Z,14.15
2022-12-14T17:42:53.182Z,13.50
2022-12-14T17:45:25.667Z,14.97
2022-12-14T17:50:19.101Z,16.05
2022-12-14T17:52:46.079Z,15.40
2022-12-14T17:55:21.905Z,14.68
2022-12-14T17:57:49.088Z,17.65
2022-12-14T18:00:35.709Z,16.48
2022-12-14T18:03:03.031Z,16.25
2022-12-14T18:05:31.033Z,16.73
2022-12-14T18:07:58.014Z,17.50
2022-12-14T18:10:25.045Z,19.15
2022-12-14T18:12:51.493Z,19.80
2022-12-14T18:15:22.801Z,20.33
2022-12-14T18:17:49.701Z,19.08
2022-12-14T18:20:16.226Z,17.45
2022-12-14T18:22:42.843Z,17.88
2022-12-14T18:25:25.077Z,18.40
2022-12-14T18:27:51.772Z,19.05
2022-12-14T18:30:18.396Z,17.63
2022-12-14T18:32:44.885Z,17.67
2022-12-14T18:35:17.222Z,17.83
2022-12-14T18:40:14.462Z,17.42
2022-12-14T18:42:40.845Z,17.23
2022-12-14T18:45:14.622Z,18.40
2022-12-14T18:47:42.573Z,18.02
2022-12-14T18:50:09.881Z,18.08
2022-12-14T18:52:36.281Z,18.17
2022-12-14T18:55:02.927Z,18.52
2022-12-14T18:57:29.413Z,18.52
2022-12-14T18:59:56.392Z,18.98
2022-12-14T19:02:22.971Z,19.17
2022-12-14T19:04:49.776Z,19.52
2022-12-14T19:07:16.155Z,18.63
2022-12-14T19:09:42.823Z,19.70
2022-12-14T19:12:10.926Z,20.50
2022-12-14T19:14:37.388Z,18.95
2022-12-14T19:17:03.790Z,20.70
2022-12-14T19:19:36.744Z,19.40
2022-12-14T19:22:07.782Z,20.33
2022-12-14T19:24:34.893Z,19.98
2022-12-14T19:27:01.657Z,19.02
2022-12-14T19:29:28.079Z,19.98
2022-12-14T19:31:55.610Z,19.73
2022-12-14T19:34:24.472Z,19.17
2022-12-14T19:36:50.918Z,19.90
2022-12-14T19:39:17.417Z,19.42
2022-12-14T19:41:43.902Z,19.55
2022-12-14T19:44:10.346Z,19.75
2022-12-14T19:46:37.023Z,20.33
2022-12-14T19:49:03.525Z,19.65
2022-12-14T19:51:30.044Z,18.75
2022-12-14T19:53:56.497Z,19.42
2022-12-14T19:56:23.120Z,20.70
2022-12-14T19:58:49.586Z,19.48
2022-12-14T20:01:17.495Z,20.25
2022-12-14T20:03:44.224Z,21.35
2022-12-14T20:06:10.808Z,20.50
2022-12-14T20:08:37.239Z,20.52
2022-12-14T20:11:08.406Z,20.55
2022-12-14T20:13:35.326Z,19.02
2022-12-14T20:16:02.208Z,19.63
2022-12-14T20:18:30.014Z,21.60
2022-12-14T20:21:04.753Z,22.50
2022-12-14T20:23:32.210Z,22.10
2022-12-14T20:26:10.200Z,21.40
2022-12-14T20:28:36.855Z,21.15
2022-12-14T20:31:08.419Z,21.00
2022-12-14T20:33:35.309Z,20.77
2022-12-14T20:36:02.115Z,22.27
2022-12-14T20:38:28.584Z,22.02
2022-12-14T20:40:55.118Z,21.48
2022-12-14T20:43:21.522Z,22.80
2022-12-14T20:45:47.887Z,23.90
2022-12-14T20:48:14.334Z,25.92
2022-12-14T20:50:42.872Z,25.25
2022-12-14T20:53:09.260Z,22.58
2022-12-14T20:55:36.092Z,22.05
2022-12-14T20:58:02.626Z,21.42
2022-12-14T21:00:29.329Z,20.83
2022-12-14T21:02:55.828Z,20.73
2022-12-14T21:05:22.414Z,21.27
2022-12-14T21:07:48.768Z,23.70
2022-12-14T21:10:15.165Z,22.83
2022-12-14T21:12:41.585Z,22.58
2022-12-14T21:15:08.341Z,22.48
2022-12-14T21:17:34.854Z,22.42
2022-12-14T21:20:01.672Z,21.20
2022-12-14T21:22:30.144Z,21.08
2022-12-14T21:25:05.796Z,21.20
2022-12-14T21:27:34.096Z,21.58
2022-12-14T21:30:00.910Z,20.95
2022-12-14T21:32:27.954Z,21.13
2022-12-14T21:34:54.491Z,20.55
2022-12-14T21:37:20.997Z,21.17
2022-12-14T21:39:54.437Z,21.70
2022-12-14T21:42:25.595Z,20.95
2022-12-14T21:44:53.287Z,21.60
2022-12-14T21:47:25.130Z,19.50
2022-12-14T21:49:51.697Z,19.60
2022-12-14T21:52:20.614Z,19.95
2022-12-14T21:54:47.001Z,20.27
2022-12-14T21:57:33.724Z,20.88
2022-12-14T22:00:00.405Z,19.38
2022-12-14T22:02:27.562Z,19.48
2022-12-14T22:04:56.044Z,19.52
2022-12-14T22:07:24.685Z,19.77
2022-12-14T22:09:51.201Z,19.42
2022-12-14T22:12:17.978Z,19.48
2022-12-14T22:14:44.660Z,18.58
2022-12-14T22:17:12.032Z,19.92
2022-12-14T22:19:38.396Z,19.73
2022-12-14T22:22:05.289Z,19.83
2022-12-14T22:24:31.933Z,19.85
2022-12-14T22:26:59.211Z,19.55
2022-12-14T22:29:25.823Z,19.48
2022-12-14T22:31:52.353Z,19.15
2022-12-14T22:34:21.247Z,20.33
2022-12-14T22:36:49.382Z,20.60
2022-12-14T22:39:17.034Z,21.25
2022-12-14T22:41:43.445Z,19.88
2022-12-14T22:44:10.968Z,20.00
2022-12-14T22:46:37.433Z,19.85
2022-12-14T22:49:04.060Z,19.70
2022-12-14T22:51:30.514Z,19.60
2022-12-14T22:53:57.650Z,20.40
2022-12-14T22:56:39.286Z,22.35
2022-12-14T22:59:10.265Z,22.33
2022-12-14T23:01:37.653Z,21.17
2022-12-14T23:04:05.883Z,21.40
2022-12-14T23:06:32.783Z,21.65
2022-12-14T23:09:17.798Z,20.90
2022-12-14T23:12:02.702Z,21.67
2022-12-14T23:14:47.688Z,21.15
2022-12-14T23:17:33.145Z,20.58
2022-12-14T23:20:17.979Z,20.40
2022-12-14T23:23:03.296Z,19.38
2022-12-14T23:25:48.642Z,20.83
2022-12-14T23:28:33.476Z,19.92
2022-12-14T23:31:18.579Z,20.17
2022-12-14T23:34:03.727Z,19.83
2022-12-14T23:36:48.828Z,19.35
2022-12-14T23:39:34.140Z,20.90
2022-12-14T23:42:19.168Z,19.73
2022-12-14T23:45:03.885Z,19.48
2022-12-14T23:47:49.326Z,20.52
2022-12-14T23:50:34.357Z,19.17
2022-12-14T23:53:26.185Z,19.63
2022-12-14T23:56:11.228Z,18.90
2022-12-14T23:58:56.620Z,18.98
